Terminal Aerodrome Forecast
Issued by NWS Cleveland, OH

Home | Current Version | Previous Version | Graphics & Text | Print | Product List | Glossary Off
Versions: 1 2 3 4 5 6 7 8 9 10 11 12 13 14 15 16 17 18 19 20 21 22 23 24

000
FTUS41 KCLE 281700
TAFERI
TAF
KERI 281739Z 2818/2918 24010KT P6SM -SHSN SCT025 OVC035
     FM282200 19008KT P6SM BKN035
     FM290500 17010KT P6SM -SN SCT025 OVC035 PROB30 2910/2913 -FZDZ
      OVC025
     FM291500 18014G22KT P6SM SCT025 OVC035=

USA.gov is the U.S. government's official web portal to all federal, state and local government web resources and services.